Time;durP1;ratioP1;P1;durP2;ratioP2;P2;SDS_P1;SDS_P2;PMS_P1;PMS_P2;Temp;Humidity;BMP_temperature;BMP_pressure;BME280_temperature;BME280_humidity;BME280_pressure;Samples;Min_cycle;Max_cycle;Signal;HPM_P1;HPM_P2
2022/01/15 00:01:25;;;;;;;12.03;9.93;;;3.50;73.40;3.20;97640.00;;;;5015051;28;20448;-86
2022/01/15 00:03:51;;;;;;;13.93;10.30;;;3.50;73.30;3.20;97645.00;;;;5014683;28;20441;-86
2022/01/15 00:06:19;;;;;;;15.07;10.70;;;3.50;73.40;3.20;97647.00;;;;5014691;28;20465;-86
2022/01/15 00:08:46;;;;;;;13.70;10.30;;;3.40;73.20;3.20;97644.00;;;;5014175;28;20456;-87
2022/01/15 00:11:13;;;;;;;14.77;10.37;;;3.40;73.20;3.20;97624.00;;;;5015210;28;20474;-86
2022/01/15 00:13:43;;;;;;;14.30;10.67;;;3.40;73.20;3.10;97632.00;;;;5015072;28;20580;-86
2022/01/15 00:16:13;;;;;;;14.67;10.80;;;3.40;73.20;3.10;97632.00;;;;5014428;28;20489;-86
2022/01/15 00:18:44;;;;;;;14.60;10.33;;;3.40;73.20;3.10;97627.00;;;;5014902;28;20452;-86
2022/01/15 00:21:13;;;;;;;14.87;10.23;;;3.40;73.30;3.10;97630.00;;;;5014452;28;20449;-86
2022/01/15 00:23:40;;;;;;;14.77;10.67;;;3.40;73.20;3.10;97633.00;;;;5014541;28;21006;-86
2022/01/15 00:26:08;;;;;;;16.53;11.43;;;3.40;73.30;3.10;97618.00;;;;5013359;28;20487;-86
2022/01/15 00:28:35;;;;;;;14.27;10.80;;;3.30;73.10;3.00;97629.00;;;;5013828;28;20202;-86
2022/01/15 00:31:04;;;;;;;17.53;11.53;;;3.30;73.10;3.00;97632.00;;;;5014413;28;20950;-86
2022/01/15 00:33:31;;;;;;;15.53;10.80;;;3.30;72.90;3.00;97626.00;;;;5014407;28;20202;-86
2022/01/15 00:35:59;;;;;;;17.83;11.87;;;3.30;72.90;3.00;97619.00;;;;5014466;28;20997;-86
2022/01/15 00:38:26;;;;;;;15.00;10.93;;;3.30;72.90;2.90;97613.00;;;;5014670;28;20443;-86
2022/01/15 00:40:54;;;;;;;17.47;11.47;;;3.20;72.80;2.90;97620.00;;;;5013090;28;20461;-86
2022/01/15 00:43:22;;;;;;;13.80;10.60;;;3.20;72.90;2.90;97615.00;;;;5014048;28;20811;-86
2022/01/15 00:45:50;;;;;;;15.33;10.27;;;3.20;73.70;2.90;97618.00;;;;5015810;28;20483;-86
2022/01/15 00:48:17;;;;;;;17.23;11.83;;;3.20;73.10;2.90;97613.00;;;;5014288;28;20457;-86
2022/01/15 00:50:44;;;;;;;16.07;11.30;;;3.10;73.00;2.90;97611.00;;;;5014043;28;20429;-86
2022/01/15 00:53:12;;;;;;;14.57;10.30;;;3.10;73.00;2.80;97620.00;;;;5013928;28;20539;-86
2022/01/15 00:55:39;;;;;;;15.07;10.67;;;3.10;73.10;2.80;97615.00;;;;5012837;28;20492;-86
2022/01/15 00:58:06;;;;;;;16.93;11.17;;;3.10;73.20;2.90;97613.00;;;;5013975;28;20440;-86
2022/01/15 01:00:33;;;;;;;14.57;11.17;;;3.10;73.00;2.80;97602.00;;;;5012123;28;20452;-86
2022/01/15 01:03:00;;;;;;;13.93;11.40;;;3.10;73.10;2.80;97612.00;;;;5013803;28;20433;-86
2022/01/15 01:05:28;;;;;;;13.83;10.60;;;3.10;73.20;2.80;97609.00;;;;5013792;28;20461;-86
2022/01/15 01:07:56;;;;;;;14.20;10.70;;;3.10;73.00;2.80;97611.00;;;;5013830;28;20448;-86
2022/01/15 01:10:48;;;;;;;16.70;11.73;;;3.00;72.90;2.80;97609.00;;;;5013346;28;20492;-86
2022/01/15 01:13:39;;;;;;;14.23;10.57;;;3.00;73.10;2.70;97611.00;;;;5013671;28;20463;-86
2022/01/15 01:24:20;;;;;;;15.97;10.73;;;3.00;73.10;2.70;97600.00;;;;4992656;28;20807;-86
2022/01/15 01:26:54;;;;;;;16.03;11.03;;;3.00;73.10;2.70;97604.00;;;;5027632;28;20844;-86
2022/01/15 01:29:25;;;;;;;14.10;10.17;;;3.00;73.10;2.70;97609.00;;;;5013131;28;21024;-86
2022/01/15 01:31:59;;;;;;;14.33;10.53;;;2.90;73.00;2.70;97612.00;;;;5013586;28;20441;-86
2022/01/15 01:34:28;;;;;;;13.93;10.37;;;2.90;73.10;2.60;97591.00;;;;5013043;28;20449;-86
2022/01/15 01:37:02;;;;;;;15.30;10.47;;;2.90;73.10;2.60;97603.00;;;;5013386;28;20547;-86
2022/01/15 01:39:38;;;;;;;15.10;10.50;;;2.90;73.10;2.60;97597.00;;;;5012779;28;20532;-86
2022/01/15 01:42:14;;;;;;;15.17;10.73;;;2.90;73.20;2.60;97590.00;;;;5013390;28;20448;-86
2022/01/15 01:45:00;;;;;;;14.47;9.97;;;2.90;73.20;2.60;97594.00;;;;5014266;28;20548;-86
2022/01/15 01:47:39;;;;;;;14.47;10.33;;;2.90;73.20;2.60;97589.00;;;;5033011;28;20440;-86
2022/01/15 01:50:10;;;;;;;17.53;11.63;;;2.90;73.20;2.60;97596.00;;;;5032516;28;20440;-86
2022/01/15 01:52:38;;;;;;;15.03;10.90;;;2.90;73.10;2.60;97586.00;;;;5033084;28;20444;-86
2022/01/15 01:55:07;;;;;;;14.67;11.13;;;2.90;73.20;2.60;97585.00;;;;5023625;28;20990;-86
2022/01/15 01:57:35;;;;;;;15.80;10.27;;;2.90;73.20;2.60;97583.00;;;;5013901;28;20861;-86
2022/01/15 02:00:06;;;;;;;12.70;9.90;;;2.90;73.20;2.60;97580.00;;;;5013264;28;20433;-85
2022/01/15 02:02:33;;;;;;;15.13;10.73;;;2.90;73.30;2.60;97580.00;;;;5012919;28;20517;-86
2022/01/15 02:05:01;;;;;;;15.57;11.10;;;2.90;73.30;2.60;97574.00;;;;5012544;28;20463;-86
2022/01/15 02:07:29;;;;;;;18.00;12.07;;;2.90;73.40;2.60;97566.00;;;;5012890;28;20441;-86
2022/01/15 02:09:57;;;;;;;14.43;10.40;;;2.80;73.50;2.60;97576.00;;;;5013220;28;20439;-86
2022/01/15 02:12:25;;;;;;;15.47;10.57;;;2.90;73.60;2.60;97560.00;;;;5013344;28;20789;-86
2022/01/15 02:14:53;;;;;;;15.20;10.93;;;2.90;73.60;2.60;97558.00;;;;5012228;28;20450;-86
2022/01/15 02:17:22;;;;;;;15.73;11.13;;;2.90;73.50;2.60;97560.00;;;;5012655;28;20487;-86
2022/01/15 02:20:10;;;;;;;16.67;10.97;;;3.00;73.40;2.60;97550.00;;;;5012692;28;20539;-86
2022/01/15 02:25:22;;;;;;;14.77;9.70;;;2.80;73.10;2.50;97551.00;;;;5012455;28;20436;-86
2022/01/15 02:27:49;;;;;;;15.60;10.77;;;2.90;73.20;2.50;97538.00;;;;5012869;28;20444;-86
2022/01/15 02:30:16;;;;;;;12.17;9.50;;;2.80;73.20;2.50;97550.00;;;;5012422;28;21131;-86
2022/01/15 02:32:43;;;;;;;16.33;10.63;;;2.80;73.20;2.50;97536.00;;;;5012164;28;20552;-86
2022/01/15 02:35:14;;;;;;;15.13;10.60;;;2.80;73.20;2.50;97533.00;;;;5012440;28;20461;-86
2022/01/15 02:37:41;;;;;;;14.90;10.00;;;2.80;73.00;2.50;97528.00;;;;5012380;28;20485;-86
2022/01/15 02:40:12;;;;;;;13.90;10.47;;;3.20;73.20;2.40;97526.00;;;;5012641;28;20459;-86
2022/01/15 02:42:39;;;;;;;16.20;11.10;;;2.80;72.90;2.40;97529.00;;;;5010009;28;20455;-86
2022/01/15 02:45:08;;;;;;;15.87;10.40;;;2.70;72.90;2.40;97523.00;;;;5016968;28;20452;-86
2022/01/15 02:50:23;;;;;;;13.83;9.70;;;2.70;72.90;2.40;97524.00;;;;5013157;28;20444;-86
2022/01/15 02:52:50;;;;;;;15.33;10.33;;;2.70;72.90;2.40;97518.00;;;;5014905;28;20923;-86
2022/01/15 02:55:17;;;;;;;14.10;10.03;;;2.70;72.80;2.40;97510.00;;;;5016451;28;20467;-86
2022/01/15 02:57:44;;;;;;;15.23;10.40;;;2.70;72.80;2.30;97509.00;;;;5016338;28;20481;-86
2022/01/15 03:00:13;;;;;;;12.30;9.93;;;2.60;72.90;2.30;97497.00;;;;5015657;28;20429;-85
2022/01/15 03:02:40;;;;;;;12.80;9.93;;;2.60;72.90;2.30;97502.00;;;;5016321;28;20452;-86
2022/01/15 03:05:11;;;;;;;14.77;11.07;;;2.60;73.60;2.30;97497.00;;;;5016293;28;20469;-85
2022/01/15 03:07:39;;;;;;;16.60;10.37;;;2.60;73.00;2.30;97496.00;;;;5014934;28;20461;-86
2022/01/15 03:10:09;;;;;;;16.47;10.23;;;2.60;73.10;2.30;97494.00;;;;5021111;28;20452;-86
2022/01/15 03:12:36;;;;;;;14.60;10.43;;;2.60;73.00;2.30;97503.00;;;;5018166;28;20506;-86
2022/01/15 03:15:05;;;;;;;14.30;9.83;;;2.60;72.90;2.30;97490.00;;;;5020809;28;20744;-86
2022/01/15 03:17:32;;;;;;;14.43;9.83;;;2.60;73.00;2.30;97498.00;;;;5035667;28;20530;-86
2022/01/15 03:19:59;;;;;;;15.07;9.67;;;3.60;73.60;2.30;97496.00;;;;5035919;28;20424;-86
2022/01/15 03:22:27;;;;;;;12.93;9.20;;;2.60;73.00;2.30;97487.00;;;;5035621;28;20439;-85
2022/01/15 03:24:55;;;;;;;11.87;9.10;;;2.60;73.10;2.30;97487.00;;;;5035847;28;20456;-86
2022/01/15 03:27:24;;;;;;;13.37;9.47;;;2.60;73.00;2.30;97478.00;;;;5035889;28;20467;-86
2022/01/15 03:29:51;;;;;;;12.47;8.70;;;2.60;73.00;2.20;97470.00;;;;5035766;28;20443;-86
2022/01/15 03:32:18;;;;;;;12.23;9.43;;;2.50;73.00;2.20;97483.00;;;;5019014;28;20499;-86
2022/01/15 03:34:46;;;;;;;10.70;8.53;;;2.50;73.00;2.20;97482.00;;;;5015596;28;20457;-86
2022/01/15 03:37:13;;;;;;;11.90;8.83;;;2.60;73.10;2.20;97471.00;;;;5015929;28;20499;-86
2022/01/15 03:39:41;;;;;;;11.73;9.40;;;2.50;73.20;2.20;97476.00;;;;5015997;28;20448;-86
2022/01/15 03:42:11;;;;;;;14.03;9.20;;;2.60;73.30;2.20;97470.00;;;;5015241;28;20453;-86
2022/01/15 03:44:41;;;;;;;13.27;9.47;;;2.50;73.30;2.20;97475.00;;;;5017135;28;20560;-85
2022/01/15 03:47:09;;;;;;;10.97;8.70;;;2.50;73.20;2.20;97468.00;;;;5031476;28;20444;-86
2022/01/15 03:49:37;;;;;;;10.80;8.30;;;2.50;73.10;2.20;97483.00;;;;5016019;28;20445;-85
2022/01/15 03:52:05;;;;;;;10.50;8.63;;;2.50;73.00;2.20;97484.00;;;;5015858;28;20441;-85
2022/01/15 03:54:33;;;;;;;10.70;8.10;;;2.50;72.90;2.20;97479.00;;;;5015564;28;20459;-86
2022/01/15 03:57:00;;;;;;;11.50;8.30;;;2.50;73.00;2.20;97484.00;;;;5015374;28;20482;-86
2022/01/15 03:59:29;;;;;;;12.70;8.67;;;2.50;73.00;2.10;97488.00;;;;5015527;28;20833;-86
2022/01/15 04:01:57;;;;;;;13.00;8.10;;;2.40;73.10;2.10;97479.00;;;;5015238;28;20443;-85
2022/01/15 04:04:25;;;;;;;11.67;9.10;;;2.40;73.20;2.10;97486.00;;;;5014964;28;20441;-86
2022/01/15 04:06:52;;;;;;;11.40;8.23;;;2.40;73.20;2.20;97491.00;;;;5015382;28;20441;-86
2022/01/15 04:09:19;;;;;;;10.93;8.80;;;2.40;73.30;2.20;97490.00;;;;5015591;28;20437;-86
2022/01/15 04:11:46;;;;;;;10.27;8.07;;;2.50;73.60;2.20;97496.00;;;;5015929;28;20440;-86
2022/01/15 04:14:13;;;;;;;13.50;8.70;;;2.50;73.80;2.30;97484.00;;;;5013385;28;20934;-86
2022/01/15 04:16:42;;;;;;;11.10;8.63;;;2.50;74.70;2.30;97495.00;;;;5022085;28;20497;-86
2022/01/15 04:19:09;;;;;;;11.73;8.40;;;2.60;74.30;2.40;97499.00;;;;5014542;28;20853;-86
2022/01/15 04:21:37;;;;;;;10.53;7.47;;;2.60;74.50;2.50;97495.00;;;;5014475;28;20906;-86
2022/01/15 04:24:05;;;;;;;10.43;8.50;;;2.60;74.60;2.50;97484.00;;;;5014344;28;20437;-86
2022/01/15 04:26:32;;;;;;;11.60;8.87;;;2.70;74.80;2.60;97496.00;;;;5016865;28;20475;-86
2022/01/15 04:29:03;;;;;;;12.50;8.77;;;2.70;74.90;2.70;97497.00;;;;5013701;28;20953;-86
2022/01/15 04:31:45;;;;;;;13.70;8.67;;;2.80;75.00;2.80;97495.00;;;;5015213;28;20433;-86
2022/01/15 04:34:15;;;;;;;16.83;9.17;;;3.00;75.10;2.90;97487.00;;;;5013838;28;20554;-85
2022/01/15 04:36:43;;;;;;;12.20;8.70;;;3.00;75.10;2.90;97491.00;;;;5013306;28;20993;-85
2022/01/15 04:39:10;;;;;;;14.27;9.53;;;3.00;75.10;3.00;97495.00;;;;5014507;28;20935;-86
2022/01/15 04:41:38;;;;;;;16.43;9.33;;;3.10;75.00;3.10;97496.00;;;;5014552;28;20441;-86
2022/01/15 04:44:06;;;;;;;14.43;9.30;;;3.20;75.10;3.20;97503.00;;;;5014764;28;20698;-85
2022/01/15 04:46:34;;;;;;;16.93;9.57;;;3.30;75.30;3.20;97496.00;;;;5014459;28;20464;-86
2022/01/15 04:49:02;;;;;;;17.87;10.20;;;3.30;75.40;3.30;97505.00;;;;5016611;28;20194;-86
2022/01/15 04:51:30;;;;;;;17.30;10.43;;;3.40;75.50;3.30;97503.00;;;;5017215;28;20187;-86
2022/01/15 04:53:57;;;;;;;19.67;10.37;;;3.50;75.50;3.40;97495.00;;;;5019089;28;20205;-86
2022/01/15 04:56:25;;;;;;;19.30;9.90;;;3.50;75.60;3.40;97495.00;;;;5032403;28;20222;-85
2022/01/15 04:58:52;;;;;;;17.13;10.23;;;3.60;75.70;3.50;97500.00;;;;5014931;28;20421;-86
2022/01/15 05:01:19;;;;;;;14.70;9.33;;;3.60;75.70;3.50;97495.00;;;;5013794;28;20209;-85
2022/01/15 05:03:46;;;;;;;20.67;10.77;;;3.60;75.80;3.60;97497.00;;;;5011972;28;20678;-86
2022/01/15 05:06:13;;;;;;;17.90;9.30;;;3.70;75.90;3.60;97493.00;;;;5013896;28;20583;-86
2022/01/15 05:08:44;;;;;;;20.23;10.20;;;3.70;75.90;3.70;97492.00;;;;5013233;28;20206;-86
2022/01/15 05:11:15;;;;;;;19.83;10.27;;;3.60;75.80;3.70;97495.00;;;;5013342;28;20205;-86
2022/01/15 05:13:42;;;;;;;17.10;10.27;;;3.80;75.90;3.80;97487.00;;;;5014504;28;20190;-86
2022/01/15 05:16:09;;;;;;;20.90;11.03;;;3.90;75.90;3.90;97493.00;;;;5027017;28;20237;-86
2022/01/15 05:18:36;;;;;;;23.13;12.03;;;3.90;75.90;3.90;97496.00;;;;5033453;28;20299;-86
2022/01/15 05:21:03;;;;;;;25.17;11.93;;;4.00;75.90;3.90;97491.00;;;;5015796;28;20568;-86
2022/01/15 05:23:30;;;;;;;24.93;12.20;;;4.00;75.90;4.00;97497.00;;;;5013876;28;20202;-86
2022/01/15 05:25:58;;;;;;;26.83;12.10;;;4.10;75.90;4.00;97496.00;;;;5012031;28;20240;-86
2022/01/15 05:28:25;;;;;;;25.67;13.10;;;4.10;75.80;4.10;97495.00;;;;5013739;28;20201;-86
2022/01/15 05:30:52;;;;;;;30.90;13.07;;;4.10;75.90;4.20;97495.00;;;;5013805;28;20197;-86
2022/01/15 05:33:20;;;;;;;23.47;11.30;;;4.20;75.90;4.20;97504.00;;;;5014009;28;20289;-86
2022/01/15 05:35:47;;;;;;;26.93;12.37;;;4.30;76.10;4.20;97500.00;;;;5013345;28;20251;-86
2022/01/15 05:38:14;;;;;;;23.70;11.37;;;4.30;76.00;4.30;97501.00;;;;5018409;28;20232;-86
2022/01/15 05:40:41;;;;;;;24.10;11.57;;;4.30;76.00;4.30;97505.00;;;;5014455;28;20209;-86
2022/01/15 05:43:09;;;;;;;25.33;12.43;;;4.30;76.10;4.30;97515.00;;;;5013626;28;20204;-86
2022/01/15 05:45:36;;;;;;;26.90;12.40;;;4.40;76.30;4.40;97511.00;;;;5024641;28;20707;-86
2022/01/15 05:48:03;;;;;;;27.83;12.03;;;4.40;76.30;4.40;97502.00;;;;5035551;28;20293;-86
2022/01/15 05:50:30;;;;;;;26.97;11.57;;;4.50;76.20;4.40;97505.00;;;;5033693;28;20205;-86
2022/01/15 05:52:58;;;;;;;26.67;12.03;;;4.50;76.10;4.50;97510.00;;;;5033765;28;20372;-86
2022/01/15 05:55:26;;;;;;;25.20;11.37;;;4.70;76.40;4.50;97505.00;;;;5029799;28;20221;-86
2022/01/15 05:57:53;;;;;;;26.90;12.30;;;4.50;76.70;4.50;97510.00;;;;5013324;28;20232;-86
2022/01/15 06:00:21;;;;;;;23.37;11.67;;;4.60;76.40;4.60;97502.00;;;;5013327;28;20702;-86
2022/01/15 06:02:48;;;;;;;27.97;13.00;;;4.60;76.50;4.60;97505.00;;;;5013334;28;20198;-86
2022/01/15 06:05:15;;;;;;;25.13;12.17;;;4.60;76.50;4.60;97503.00;;;;5013318;28;20218;-86
2022/01/15 06:07:42;;;;;;;23.70;12.33;;;4.70;77.30;4.60;97512.00;;;;5013181;28;20210;-86
2022/01/15 06:10:10;;;;;;;29.30;12.97;;;4.70;76.50;4.70;97509.00;;;;5013595;28;20205;-86
2022/01/15 06:12:42;;;;;;;32.90;13.03;;;4.70;76.50;4.70;97503.00;;;;5013741;28;20205;-86
2022/01/15 06:15:12;;;;;;;26.47;13.03;;;4.70;76.50;4.70;97505.00;;;;5022442;28;20303;-86
2022/01/15 06:17:41;;;;;;;32.90;12.67;;;4.80;76.60;4.70;97515.00;;;;5033318;28;20224;-86
2022/01/15 06:20:10;;;;;;;25.00;12.67;;;4.80;77.30;4.80;97505.00;;;;5032651;28;20198;-86
2022/01/15 06:22:38;;;;;;;24.87;11.90;;;4.80;76.50;4.80;97511.00;;;;5032832;28;20617;-86
2022/01/15 06:25:06;;;;;;;23.40;12.00;;;4.80;76.50;4.80;97519.00;;;;5020906;28;20219;-86
2022/01/15 06:27:34;;;;;;;20.13;11.37;;;4.90;76.50;4.90;97512.00;;;;5012493;28;20202;-86
2022/01/15 06:30:01;;;;;;;26.47;11.50;;;4.90;76.60;4.90;97511.00;;;;5012498;28;20194;-86
2022/01/15 06:32:35;;;;;;;23.70;11.00;;;4.90;76.80;4.90;97503.00;;;;5012754;28;20194;-86
2022/01/15 06:35:06;;;;;;;25.63;12.10;;;5.00;76.90;5.00;97504.00;;;;5011970;28;20232;-86
2022/01/15 06:37:33;;;;;;;21.43;11.70;;;5.00;76.90;5.00;97517.00;;;;5012587;28;20220;-86
2022/01/15 06:40:00;;;;;;;28.03;12.90;;;5.00;76.80;5.00;97504.00;;;;5012378;28;20212;-86
2022/01/15 06:42:29;;;;;;;23.97;11.60;;;5.00;76.70;5.00;97520.00;;;;5012894;28;20194;-83
2022/01/15 06:44:56;;;;;;;24.47;11.53;;;5.10;76.80;5.10;97522.00;;;;5011781;28;20256;-84
2022/01/15 06:47:23;;;;;;;26.13;11.90;;;5.20;76.90;5.10;97521.00;;;;5011574;28;20541;-84
2022/01/15 06:49:50;;;;;;;23.97;11.97;;;5.10;76.90;5.20;97521.00;;;;5012560;28;20198;-83
2022/01/15 06:52:20;;;;;;;26.73;12.73;;;5.10;77.00;5.30;97530.00;;;;5012784;28;20194;-83
2022/01/15 06:54:47;;;;;;;21.97;11.23;;;5.20;77.00;5.30;97526.00;;;;5012044;28;20253;-83
2022/01/15 06:57:14;;;;;;;23.33;11.60;;;5.20;77.00;5.40;97521.00;;;;5011872;28;20232;-83
2022/01/15 06:59:44;;;;;;;29.33;12.07;;;5.20;77.00;5.40;97518.00;;;;5012105;28;20205;-83
2022/01/15 07:02:11;;;;;;;30.30;13.10;;;5.20;77.00;5.50;97521.00;;;;5012312;28;20272;-83
2022/01/15 07:04:40;;;;;;;25.13;12.03;;;5.30;77.10;5.50;97523.00;;;;5012119;28;20224;-83
2022/01/15 07:07:07;;;;;;;24.80;12.47;;;5.30;77.00;5.60;97527.00;;;;5010555;28;20207;-83
2022/01/15 07:09:36;;;;;;;25.80;12.90;;;5.40;77.10;5.60;97524.00;;;;5011658;28;20190;-83
2022/01/15 07:12:03;;;;;;;21.50;11.30;;;5.40;77.10;5.60;97521.00;;;;5010777;28;20194;-85
2022/01/15 07:14:31;;;;;;;27.47;12.50;;;5.40;77.10;5.70;97526.00;;;;5012160;28;20585;-84
2022/01/15 07:16:58;;;;;;;27.00;12.70;;;5.50;77.10;5.70;97517.00;;;;5011813;28;20679;-84
2022/01/15 07:19:25;;;;;;;23.03;12.80;;;5.50;77.20;5.70;97523.00;;;;5012016;28;20229;-83
2022/01/15 07:21:52;;;;;;;28.67;13.00;;;5.50;77.10;5.80;97525.00;;;;4992598;28;20265;-84
2022/01/15 07:24:19;;;;;;;27.03;13.03;;;5.60;77.20;5.80;97532.00;;;;4992253;28;20293;-84
2022/01/15 07:26:49;;;;;;;27.87;13.50;;;5.60;77.20;5.80;97529.00;;;;5011174;28;20668;-84
2022/01/15 07:29:16;;;;;;;29.00;13.93;;;5.60;77.30;5.80;97530.00;;;;5011583;28;20213;-84
2022/01/15 07:31:46;;;;;;;30.53;14.37;;;5.70;77.30;5.90;97530.00;;;;5011943;28;20634;-84
2022/01/15 07:34:13;;;;;;;30.33;13.97;;;5.70;77.30;5.90;97533.00;;;;5011722;28;20281;-83
2022/01/15 07:36:42;;;;;;;29.93;14.10;;;5.70;77.30;5.90;97526.00;;;;5011952;28;20226;-83
2022/01/15 07:39:10;;;;;;;31.80;13.83;;;5.70;77.20;6.00;97536.00;;;;5014535;28;20229;-84
2022/01/15 07:41:37;;;;;;;34.10;15.07;;;5.80;77.30;6.00;97530.00;;;;5015704;28;20209;-83
2022/01/15 07:44:06;;;;;;;28.77;13.93;;;5.80;77.20;6.00;97522.00;;;;5015344;28;20240;-84
2022/01/15 07:46:33;;;;;;;27.27;13.87;;;5.80;77.20;6.00;97525.00;;;;5015058;28;20225;-84
2022/01/15 07:49:06;;;;;;;30.43;14.07;;;5.80;77.20;6.10;97517.00;;;;5015623;28;20229;-85
2022/01/15 07:51:33;;;;;;;25.50;13.37;;;5.90;77.20;6.10;97528.00;;;;5015219;28;20301;-84
2022/01/15 07:54:00;;;;;;;28.43;13.30;;;5.90;77.30;6.10;97515.00;;;;5015554;28;20220;-84
2022/01/15 07:56:27;;;;;;;26.47;14.37;;;5.90;77.40;6.10;97510.00;;;;5015235;28;20229;-84
2022/01/15 07:58:55;;;;;;;26.53;13.80;;;5.90;77.50;6.20;97518.00;;;;5015483;28;20581;-84
2022/01/15 08:01:23;;;;;;;31.43;14.23;;;5.90;77.50;6.20;97520.00;;;;5015747;28;20198;-84
2022/01/15 08:03:50;;;;;;;33.60;15.03;;;6.00;77.50;6.20;97517.00;;;;5016489;28;20206;-84
2022/01/15 08:06:17;;;;;;;30.93;14.57;;;6.00;77.50;6.30;97518.00;;;;5028087;28;20229;-84
2022/01/15 08:08:44;;;;;;;28.93;14.37;;;6.10;77.50;6.30;97514.00;;;;5016004;28;20206;-85
2022/01/15 08:11:11;;;;;;;30.73;15.67;;;6.10;77.60;6.30;97510.00;;;;5014832;28;20190;-85
2022/01/15 08:13:39;;;;;;;35.73;15.07;;;6.10;77.60;6.40;97511.00;;;;5013400;28;20221;-85
2022/01/15 08:16:07;;;;;;;32.00;15.07;;;6.10;77.70;6.40;97501.00;;;;5013557;28;20320;-84
2022/01/15 08:18:35;;;;;;;34.03;15.67;;;6.20;77.70;6.40;97509.00;;;;5014913;28;20597;-85
2022/01/15 08:21:03;;;;;;;33.77;15.17;;;6.20;77.70;6.50;97509.00;;;;5014751;28;20562;-85
2022/01/15 08:23:30;;;;;;;31.70;16.20;;;6.20;77.60;6.50;97500.00;;;;5008419;28;20691;-85
2022/01/15 08:25:58;;;;;;;32.50;15.00;;;6.30;77.60;6.50;97497.00;;;;5010161;28;20226;-85
2022/01/15 08:28:25;;;;;;;34.03;15.87;;;6.30;77.50;6.60;97499.00;;;;5011935;28;20202;-84
2022/01/15 08:30:52;;;;;;;35.07;15.77;;;6.30;77.60;6.60;97495.00;;;;5012413;28;20202;-84
2022/01/15 08:33:19;;;;;;;33.53;16.53;;;6.40;77.60;6.70;97489.00;;;;5014708;28;20204;-85
2022/01/15 08:35:48;;;;;;;30.87;14.90;;;6.40;77.60;6.70;97495.00;;;;5014131;28;20226;-85
2022/01/15 08:38:15;;;;;;;25.13;14.27;;;6.40;77.60;6.70;97496.00;;;;5014927;28;20218;-85
2022/01/15 08:40:43;;;;;;;29.20;14.10;;;6.50;77.70;6.80;97495.00;;;;5014440;28;20212;-85
2022/01/15 08:43:10;;;;;;;32.90;15.90;;;6.50;77.60;6.80;97494.00;;;;5015628;28;20202;-85
2022/01/15 08:45:38;;;;;;;29.97;14.53;;;6.50;77.60;6.80;97489.00;;;;5015021;28;20236;-85
2022/01/15 08:48:07;;;;;;;26.43;13.60;;;6.60;77.60;6.80;97491.00;;;;5026922;28;20206;-85
2022/01/15 08:50:35;;;;;;;31.17;14.07;;;6.60;77.60;6.90;97511.00;;;;5012153;28;20686;-85
2022/01/15 08:53:06;;;;;;;30.13;13.40;;;6.60;77.60;6.90;97510.00;;;;5009201;28;20194;-84
2022/01/15 08:55:33;;;;;;;28.43;13.80;;;6.70;77.70;6.90;97510.00;;;;5013062;28;20663;-85
2022/01/15 08:58:01;;;;;;;29.40;13.30;;;6.70;77.60;7.00;97503.00;;;;5013908;28;20300;-85
2022/01/15 09:00:28;;;;;;;28.17;13.47;;;6.70;77.60;7.00;97503.00;;;;5014327;28;20658;-85
2022/01/15 09:02:58;;;;;;;24.87;13.07;;;6.70;77.60;7.00;97500.00;;;;5013601;28;20502;-85
2022/01/15 09:05:25;;;;;;;25.63;13.40;;;6.80;77.60;7.10;97500.00;;;;5015259;28;20218;-85
2022/01/15 09:07:54;;;;;;;27.70;13.73;;;6.80;77.50;7.10;97498.00;;;;5017192;28;20202;-85
2022/01/15 09:10:23;;;;;;;27.67;13.27;;;6.80;77.50;7.10;97510.00;;;;5011556;28;20584;-85
2022/01/15 09:12:50;;;;;;;28.67;13.77;;;6.90;77.60;7.20;97505.00;;;;5015306;28;20201;-85
2022/01/15 09:15:18;;;;;;;25.47;13.03;;;6.90;77.60;7.20;97495.00;;;;5014944;28;20332;-86
2022/01/15 09:17:45;;;;;;;22.63;11.37;;;6.90;77.60;7.30;97496.00;;;;5013308;28;20187;-85
2022/01/15 09:20:13;;;;;;;18.77;10.27;;;6.90;77.60;7.30;97495.00;;;;5013511;28;20629;-85
2022/01/15 09:22:41;;;;;;;15.90;9.03;;;7.00;77.50;7.30;97497.00;;;;5013842;28;20663;-85
2022/01/15 09:25:09;;;;;;;18.33;10.17;;;7.00;77.60;7.40;97494.00;;;;5013120;28;20214;-85
2022/01/15 09:30:22;;;;;;;18.97;10.20;;;7.20;77.60;7.40;97495.00;;;;5013187;28;20275;-85
2022/01/15 09:32:52;;;;;;;17.70;10.00;;;7.10;77.40;7.50;97499.00;;;;5009751;28;20198;-85
2022/01/15 09:35:23;;;;;;;14.90;8.50;;;7.10;77.40;7.50;97497.00;;;;5010679;28;20228;-86
2022/01/15 09:37:52;;;;;;;17.13;9.27;;;7.20;77.50;7.50;97501.00;;;;5012877;28;20227;-85
2022/01/15 09:40:23;;;;;;;16.27;8.53;;;7.20;77.30;7.50;97501.00;;;;5013602;28;20217;-86
2022/01/15 09:42:52;;;;;;;17.43;9.80;;;7.20;77.30;7.60;97494.00;;;;5012636;28;20636;-85
2022/01/15 09:45:22;;;;;;;17.23;9.40;;;7.20;77.30;7.60;97493.00;;;;5011618;28;20220;-86
2022/01/15 09:47:55;;;;;;;14.50;8.73;;;7.30;77.30;7.60;97512.00;;;;5013113;28;20198;-86
2022/01/15 09:50:23;;;;;;;12.10;6.97;;;7.30;77.20;7.70;97502.00;;;;5013884;28;20198;-84
2022/01/15 09:52:51;;;;;;;11.17;6.80;;;7.30;77.00;7.70;97491.00;;;;5013633;28;20202;-85
2022/01/15 09:55:20;;;;;;;11.60;7.00;;;7.30;77.10;7.70;97494.00;;;;5009479;28;20321;-85
2022/01/15 09:57:47;;;;;;;12.57;6.97;;;7.80;77.40;7.70;97492.00;;;;5020682;28;20209;-86
2022/01/15 10:00:18;;;;;;;11.30;6.83;;;7.40;77.00;7.80;97495.00;;;;5012586;28;20301;-86
2022/01/15 10:02:49;;;;;;;8.90;6.13;;;7.40;77.00;7.80;97490.00;;;;5010768;28;20198;-86
2022/01/15 10:05:18;;;;;;;9.97;6.10;;;7.50;77.00;7.80;97491.00;;;;5008531;28;20218;-86
2022/01/15 10:07:58;;;;;;;7.80;6.00;;;7.50;77.00;7.80;97483.00;;;;5026774;28;20204;-85
2022/01/15 10:10:27;;;;;;;8.77;5.73;;;7.50;76.80;7.90;97486.00;;;;5014006;28;20592;-85
2022/01/15 10:12:55;;;;;;;9.90;7.03;;;7.60;76.90;7.90;97477.00;;;;5008525;28;20671;-84
2022/01/15 10:15:23;;;;;;;8.47;5.97;;;7.60;76.90;7.90;97485.00;;;;5011322;28;20218;-85
2022/01/15 10:17:50;;;;;;;8.93;6.23;;;7.60;76.70;7.90;97482.00;;;;5003583;28;20201;-85
2022/01/15 10:20:22;;;;;;;11.30;6.93;;;7.60;76.70;8.00;97481.00;;;;5012696;28;20671;-86
2022/01/15 10:22:52;;;;;;;12.30;7.43;;;7.60;76.70;8.00;97481.00;;;;5007899;28;20198;-86
2022/01/15 10:25:23;;;;;;;11.23;7.27;;;7.60;76.70;8.00;97476.00;;;;5011536;28;20218;-86
2022/01/15 10:27:53;;;;;;;9.70;6.97;;;7.60;77.30;8.00;97479.00;;;;5011698;28;20201;-86
2022/01/15 10:30:25;;;;;;;10.90;6.73;;;7.70;76.80;8.10;97480.00;;;;5012297;28;20224;-86
2022/01/15 10:32:56;;;;;;;10.57;6.73;;;7.70;76.70;8.10;97478.00;;;;5012447;28;20198;-86
2022/01/15 10:35:27;;;;;;;9.70;7.07;;;7.80;76.80;8.10;97474.00;;;;5011448;28;20210;-85
2022/01/15 10:37:57;;;;;;;12.57;7.50;;;7.70;76.80;8.10;97480.00;;;;5012011;28;20205;-85
2022/01/15 10:40:27;;;;;;;14.40;7.70;;;7.80;76.70;8.10;97470.00;;;;5011837;28;20209;-85
2022/01/15 10:42:57;;;;;;;16.03;8.47;;;7.80;76.60;8.10;97475.00;;;;5011789;28;20664;-85
2022/01/15 10:45:29;;;;;;;14.70;8.57;;;7.80;76.50;8.10;97467.00;;;;5011904;28;20221;-85
2022/01/15 10:47:58;;;;;;;12.37;8.13;;;7.80;76.50;8.10;97463.00;;;;5012443;28;20182;-86
2022/01/15 10:50:28;;;;;;;12.90;8.57;;;7.80;76.50;8.10;97455.00;;;;5010708;28;20551;-85
2022/01/15 10:52:57;;;;;;;14.73;7.97;;;7.80;76.30;8.10;97449.00;;;;5012422;28;20206;-85
2022/01/15 10:55:28;;;;;;;12.27;8.47;;;7.90;76.30;8.10;97446.00;;;;5022574;28;20222;-85
2022/01/15 10:57:59;;;;;;;12.37;8.13;;;7.80;76.10;8.10;97447.00;;;;5011595;28;20194;-85
2022/01/15 11:00:42;;;;;;;13.53;9.10;;;7.80;76.10;8.10;97450.00;;;;5004234;28;20304;-85
2022/01/15 11:03:12;;;;;;;15.40;8.97;;;7.80;76.00;8.10;97435.00;;;;5012120;28;20198;-85
2022/01/15 11:05:41;;;;;;;13.93;8.70;;;7.80;76.00;8.10;97433.00;;;;5011783;28;20250;-85
2022/01/15 11:08:19;;;;;;;13.23;8.67;;;7.80;76.00;8.10;97429.00;;;;5011049;28;20628;-85
2022/01/15 11:10:53;;;;;;;14.13;8.27;;;7.80;75.80;8.10;97418.00;;;;5011739;28;20198;-84
2022/01/15 11:13:23;;;;;;;9.67;6.30;;;7.80;76.00;8.10;97412.00;;;;5012938;28;20614;-85
2022/01/15 11:15:56;;;;;;;10.33;6.67;;;7.80;75.90;8.10;97418.00;;;;5015406;28;20230;-85
2022/01/15 11:18:27;;;;;;;10.50;6.50;;;7.90;76.00;8.20;97415.00;;;;5019516;28;20198;-84
2022/01/15 11:20:57;;;;;;;8.67;6.13;;;7.80;76.00;8.20;97412.00;;;;5016463;28;20256;-85